Time;durP1;ratioP1;P1;durP2;ratioP2;P2;SDS_P1;SDS_P2;PMS_P1;PMS_P2;Temp;Humidity;BMP_temperature;BMP_pressure;BME280_temperature;BME280_humidity;BME280_pressure;Samples;Min_cycle;Max_cycle;Signal;HPM_P1;HPM_P2
2021/03/07 00:00:24;;;;;;;;;;;;;;;-1.36;91.08;102895.47;5049016;28;1663;-83
2021/03/07 00:02:51;;;;;;;;;;;;;;;-1.28;91.04;102890.84;5049330;28;1875;-83
2021/03/07 00:05:16;;;;;;;;;;;;;;;-1.23;90.73;102891.91;5050964;28;2029;-84
2021/03/07 00:07:43;;;;;;;;;;;;;;;-1.15;90.63;102886.22;5033143;28;1495;-84
2021/03/07 00:10:11;;;;;;;;;;;;;;;-1.08;89.91;102890.78;5037991;28;1664;-83
2021/03/07 00:12:37;;;;;;;;;;;;;;;-1.01;89.91;102884.28;5035564;28;1530;-83
2021/03/07 00:15:06;;;;;;;;;;;;;;;-0.98;89.86;102881.13;5041881;28;1592;-83
2021/03/07 00:17:32;;;;;;;;;;;;;;;-0.91;89.66;102883.00;5041263;28;1979;-83
2021/03/07 00:19:57;;;;;;;;;;;;;;;-0.88;89.35;102874.41;5041981;28;1797;-83
2021/03/07 00:22:23;;;;;;;;;;;;;;;-0.82;89.62;102874.38;5025918;28;1524;-83
2021/03/07 00:24:48;;;;;;;;;;;;;;;-0.79;89.14;102868.53;5031818;28;1658;-83
2021/03/07 00:27:13;;;;;;;;;;;;;;;-0.72;89.02;102864.94;5040797;28;1977;-83
2021/03/07 00:29:39;;;;;;;;;;;;;;;-0.67;88.49;102867.84;5039467;28;1578;-83
2021/03/07 00:32:04;;;;;;;;;;;;;;;-0.69;88.38;102868.06;5038793;28;1958;-83
2021/03/07 00:34:29;;;;;;;;;;;;;;;-0.74;87.77;102862.44;5039060;28;1790;-83
2021/03/07 00:36:55;;;;;;;;;;;;;;;-0.82;88.37;102868.13;5039009;28;1885;-83
2021/03/07 00:39:20;;;;;;;;;;;;;;;-0.90;88.15;102863.78;5032168;28;1308;-83
2021/03/07 00:41:45;;;;;;;;;;;;;;;-1.01;88.39;102856.34;5038757;28;2375;-83
2021/03/07 00:44:12;;;;;;;;;;;;;;;-1.16;88.51;102857.44;5037973;28;1570;-84
2021/03/07 00:46:39;;;;;;;;;;;;;;;-1.23;88.36;102853.09;5042552;28;1383;-83
2021/03/07 00:49:05;;;;;;;;;;;;;;;-1.25;89.06;102853.31;5042004;28;1818;-83
2021/03/07 00:51:30;;;;;;;;;;;;;;;-1.22;88.91;102854.75;5043989;28;949;-83
2021/03/07 00:53:55;;;;;;;;;;;;;;;-1.12;88.43;102841.59;5044209;28;1023;-83
2021/03/07 00:56:21;;;;;;;;;;;;;;;-0.93;87.65;102841.66;5043764;28;938;-83
2021/03/07 00:58:46;;;;;;;;;;;;;;;-0.84;87.40;102841.22;5044453;28;1935;-83
2021/03/07 01:01:11;;;;;;;;;;;;;;;-0.71;86.99;102834.03;5044854;28;1372;-83
2021/03/07 01:03:37;;;;;;;;;;;;;;;-0.59;85.62;102827.69;5041867;28;1809;-83
2021/03/07 01:06:02;;;;;;;;;;;;;;;-0.44;84.57;102823.81;5039684;28;1630;-83
2021/03/07 01:08:28;;;;;;;;;;;;;;;-0.28;83.45;102822.44;5039017;28;1772;-83
2021/03/07 01:10:53;;;;;;;;;;;;;;;-0.20;83.13;102825.69;5023129;28;1426;-83
2021/03/07 01:13:21;;;;;;;;;;;;;;;-0.09;81.72;102813.25;5039757;28;2159;-83
2021/03/07 01:15:46;;;;;;;;;;;;;;;0.02;81.35;102821.72;5038889;28;798;-83
2021/03/07 01:18:12;;;;;;;;;;;;;;;-0.07;81.92;102818.47;5034971;28;1936;-83
2021/03/07 01:20:41;;;;;;;;;;;;;;;-0.12;82.29;102808.31;5040349;28;1779;-83
2021/03/07 01:23:07;;;;;;;;;;;;;;;-0.14;82.40;102809.56;5045695;28;894;-83
2021/03/07 01:25:32;;;;;;;;;;;;;;;-0.16;82.06;102807.06;5044830;28;1716;-83
2021/03/07 01:27:59;;;;;;;;;;;;;;;-0.15;82.06;102810.63;5045528;28;1600;-83
2021/03/07 01:30:25;;;;;;;;;;;;;;;-0.17;82.66;102801.88;5027803;28;1658;-83
2021/03/07 01:32:51;;;;;;;;;;;;;;;-0.16;82.35;102800.81;5042806;28;1921;-83
2021/03/07 01:35:17;;;;;;;;;;;;;;;-0.16;81.80;102789.97;5043700;28;1777;-83
2021/03/07 01:37:43;;;;;;;;;;;;;;;-0.17;81.92;102786.41;5036207;28;1930;-83
2021/03/07 01:40:11;;;;;;;;;;;;;;;-0.16;81.81;102784.53;5026100;28;1421;-83
2021/03/07 01:42:37;;;;;;;;;;;;;;;-0.16;81.91;102782.63;5043185;28;1578;-83
2021/03/07 01:45:04;;;;;;;;;;;;;;;-0.16;82.43;102779.91;5045558;28;2009;-83
2021/03/07 01:47:32;;;;;;;;;;;;;;;-0.16;81.86;102777.19;5042684;28;1908;-83
2021/03/07 01:50:00;;;;;;;;;;;;;;;-0.13;82.39;102762.34;5043591;28;1353;-83
2021/03/07 01:52:26;;;;;;;;;;;;;;;-0.13;82.16;102765.06;5042107;28;1947;-83
2021/03/07 01:54:51;;;;;;;;;;;;;;;-0.13;82.63;102760.47;5042200;28;1964;-83
2021/03/07 01:57:19;;;;;;;;;;;;;;;-0.12;82.21;102758.56;5043827;28;1898;-83
2021/03/07 01:59:47;;;;;;;;;;;;;;;-0.13;82.63;102757.75;5026184;28;2274;-83
2021/03/07 02:02:12;;;;;;;;;;;;;;;-0.13;82.28;102759.66;5031994;28;1742;-84
2021/03/07 02:04:38;;;;;;;;;;;;;;;-0.14;82.37;102742.50;5045136;28;1662;-83
2021/03/07 02:07:03;;;;;;;;;;;;;;;-0.15;82.64;102737.31;5039659;28;1585;-83
2021/03/07 02:09:29;;;;;;;;;;;;;;;-0.16;82.70;102743.78;5032827;28;1965;-83
2021/03/07 02:11:55;;;;;;;;;;;;;;;-0.19;82.54;102739.66;5035442;28;1782;-83
2021/03/07 02:14:23;;;;;;;;;;;;;;;-0.20;82.29;102740.69;5036978;28;896;-83
2021/03/07 02:16:48;;;;;;;;;;;;;;;-0.20;82.42;102735.28;5034939;28;2186;-83
2021/03/07 02:19:17;;;;;;;;;;;;;;;-0.23;81.65;102731.09;5045406;28;1957;-83
2021/03/07 02:21:50;;;;;;;;;;;;;;;-0.24;81.74;102734.06;5041499;28;994;-83
2021/03/07 02:24:16;;;;;;;;;;;;;;;-0.24;82.34;102731.34;5041607;28;1965;-83
2021/03/07 02:26:48;;;;;;;;;;;;;;;-0.23;82.80;102728.38;5041431;28;1683;-83
2021/03/07 02:29:15;;;;;;;;;;;;;;;-0.23;82.12;102725.66;5042430;28;1279;-83
2021/03/07 02:31:47;;;;;;;;;;;;;;;-0.22;82.33;102724.63;5041695;28;1753;-83
2021/03/07 02:34:32;;;;;;;;;;;;;;;-0.25;82.00;102722.34;5037655;28;1671;-83
2021/03/07 02:37:00;;;;;;;;;;;;;;;-0.24;82.21;102720.50;5042156;28;1934;-83
2021/03/07 02:39:30;;;;;;;;;;;;;;;-0.23;82.33;102709.38;5040873;28;1309;-83
2021/03/07 02:41:59;;;;;;;;;;;;;;;-0.27;82.41;102712.78;5041575;28;788;-83
2021/03/07 02:44:30;;;;;;;;;;;;;;;-0.28;82.19;102708.41;5042594;28;1664;-83
2021/03/07 02:46:56;;;;;;;;;;;;;;;-0.26;82.54;102701.72;5043613;28;1870;-84
2021/03/07 02:49:23;;;;;;;;;;;;;;;-0.29;82.78;102704.88;5045656;28;1999;-84
2021/03/07 02:51:49;;;;;;;;;;;;;;;-0.28;82.72;102702.97;5059539;28;1016;-83
2021/03/07 02:54:17;;;;;;;;;;;;;;;-0.28;82.81;102698.38;5053132;28;1664;-84
2021/03/07 02:56:47;;;;;;;;;;;;;;;-0.28;82.42;102687.50;5043604;28;1937;-83
2021/03/07 02:59:15;;;;;;;;;;;;;;;-0.28;82.47;102687.50;5035681;28;1902;-84
2021/03/07 03:01:45;;;;;;;;;;;;;;;-0.28;82.35;102687.50;5042350;28;1301;-83
2021/03/07 03:04:14;;;;;;;;;;;;;;;-0.28;82.41;102675.81;5043268;28;1847;-83
2021/03/07 03:06:42;;;;;;;;;;;;;;;-0.29;82.79;102675.00;5041955;28;2404;-84
2021/03/07 03:09:10;;;;;;;;;;;;;;;-0.28;82.45;102676.66;5057137;28;1373;-83
2021/03/07 03:11:39;;;;;;;;;;;;;;;-0.28;82.59;102664.97;5041270;28;1710;-83
2021/03/07 03:14:08;;;;;;;;;;;;;;;-0.27;82.59;102667.47;5042029;28;856;-84
2021/03/07 03:16:36;;;;;;;;;;;;;;;-0.28;82.20;102663.06;5040263;28;1894;-83
2021/03/07 03:19:06;;;;;;;;;;;;;;;-0.25;82.30;102662.63;5040418;28;1764;-83
2021/03/07 03:21:32;;;;;;;;;;;;;;;-0.22;82.27;102662.19;5041837;28;1597;-83
2021/03/07 03:23:58;;;;;;;;;;;;;;;-0.19;82.56;102663.63;5042161;28;880;-83
2021/03/07 03:26:24;;;;;;;;;;;;;;;-0.18;82.76;102654.41;5042058;28;1663;-83
2021/03/07 03:28:51;;;;;;;;;;;;;;;-0.16;82.71;102654.19;5041755;28;1769;-83
2021/03/07 03:31:17;;;;;;;;;;;;;;;-0.15;82.32;102655.84;5042377;28;2196;-83
2021/03/07 03:33:42;;;;;;;;;;;;;;;-0.13;82.24;102640.16;5041994;28;1985;-83
2021/03/07 03:36:08;;;;;;;;;;;;;;;-0.11;82.16;102648.91;5041967;28;849;-83
2021/03/07 03:38:39;;;;;;;;;;;;;;;-0.09;82.19;102638.63;5041253;28;1911;-83
2021/03/07 03:41:08;;;;;;;;;;;;;;;-0.06;81.45;102632.75;5041870;28;1712;-83
2021/03/07 03:43:39;;;;;;;;;;;;;;;-0.07;81.43;102637.38;5041993;28;1662;-84
2021/03/07 03:46:06;;;;;;;;;;;;;;;-0.06;81.66;102636.28;5041432;28;897;-83
2021/03/07 03:48:37;;;;;;;;;;;;;;;-0.03;81.57;102640.44;5041061;28;1869;-83
2021/03/07 03:51:07;;;;;;;;;;;;;;;0.01;81.48;102638.09;5040759;28;1984;-83
2021/03/07 03:53:34;;;;;;;;;;;;;;;0.01;81.11;102636.22;5042391;28;1671;-83
2021/03/07 03:56:00;;;;;;;;;;;;;;;0.03;81.15;102641.41;5042704;28;1624;-83
2021/03/07 03:58:29;;;;;;;;;;;;;;;0.01;80.75;102636.22;5042791;28;1906;-83
2021/03/07 04:00:57;;;;;;;;;;;;;;;0.00;81.23;102631.84;5042443;28;897;-84
2021/03/07 04:03:24;;;;;;;;;;;;;;;0.00;81.06;102618.28;5042622;28;1692;-84
2021/03/07 04:05:52;;;;;;;;;;;;;;;0.00;80.45;102618.28;5042616;28;1577;-84
2021/03/07 04:08:19;;;;;;;;;;;;;;;0.01;80.63;102611.75;5026737;28;1803;-84
2021/03/07 04:10:46;;;;;;;;;;;;;;;0.01;80.95;102613.66;5033389;28;1534;-83
2021/03/07 04:13:15;;;;;;;;;;;;;;;0.03;80.39;102611.53;5041012;28;1759;-83
2021/03/07 04:15:41;;;;;;;;;;;;;;;0.02;80.88;102613.44;5028477;28;1675;-83
2021/03/07 04:18:09;;;;;;;;;;;;;;;0.03;80.59;102608.81;5041541;28;1977;-83
2021/03/07 04:20:35;;;;;;;;;;;;;;;0.05;80.50;102609.41;5039035;28;912;-83
2021/03/07 04:23:02;;;;;;;;;;;;;;;0.05;80.88;102607.50;5030118;28;1655;-83
2021/03/07 04:25:27;;;;;;;;;;;;;;;0.08;80.75;102611.69;5031409;28;1596;-83
2021/03/07 04:27:53;;;;;;;;;;;;;;;0.10;80.05;102613.09;5037420;28;1793;-83
2021/03/07 04:30:20;;;;;;;;;;;;;;;0.11;79.75;102608.50;5031001;28;1481;-83
2021/03/07 04:32:46;;;;;;;;;;;;;;;0.14;79.67;102600.72;5040802;28;1783;-83
2021/03/07 04:35:13;;;;;;;;;;;;;;;0.17;79.73;102613.00;5025757;28;2073;-83
2021/03/07 04:37:39;;;;;;;;;;;;;;;0.18;79.62;102607.34;5037101;28;1875;-83
2021/03/07 04:40:06;;;;;;;;;;;;;;;0.21;79.25;102616.09;5037231;28;1857;-83
2021/03/07 04:42:33;;;;;;;;;;;;;;;0.22;79.55;102612.31;5032966;28;1479;-83
2021/03/07 04:44:58;;;;;;;;;;;;;;;0.22;79.02;102606.88;5029908;28;1782;-83
2021/03/07 04:47:23;;;;;;;;;;;;;;;0.21;79.16;102594.34;5029912;28;1901;-83
2021/03/07 04:49:49;;;;;;;;;;;;;;;0.18;79.26;102603.81;5026857;28;1874;-83
2021/03/07 04:52:14;;;;;;;;;;;;;;;0.16;79.02;102600.50;5030897;28;1682;-83
2021/03/07 04:54:40;;;;;;;;;;;;;;;0.14;79.36;102589.03;5044181;28;1869;-83
2021/03/07 04:57:05;;;;;;;;;;;;;;;0.15;79.59;102590.69;5040483;28;1894;-84
2021/03/07 04:59:31;;;;;;;;;;;;;;;0.16;78.92;102586.91;5042397;28;1795;-83
2021/03/07 05:01:58;;;;;;;;;;;;;;;0.16;79.26;102587.72;5037738;28;1591;-83
2021/03/07 05:04:23;;;;;;;;;;;;;;;0.16;79.33;102590.44;5037071;28;1780;-83
2021/03/07 05:06:50;;;;;;;;;;;;;;;0.16;79.31;102593.16;5045634;28;1682;-84
2021/03/07 05:09:15;;;;;;;;;;;;;;;0.19;78.74;102581.00;5043887;28;1377;-83
2021/03/07 05:11:41;;;;;;;;;;;;;;;0.21;78.76;102587.06;5038381;28;1804;-83
2021/03/07 05:14:06;;;;;;;;;;;;;;;0.21;78.24;102575.31;5045233;28;1482;-83
2021/03/07 05:16:32;;;;;;;;;;;;;;;0.20;78.65;102574.50;5046048;28;1529;-83
2021/03/07 05:18:58;;;;;;;;;;;;;;;0.20;78.76;102573.69;5044393;28;1953;-83
2021/03/07 05:21:24;;;;;;;;;;;;;;;0.21;78.64;102575.31;5045073;28;854;-83
2021/03/07 05:23:49;;;;;;;;;;;;;;;0.22;78.34;102571.56;5044926;28;2086;-83
2021/03/07 05:26:15;;;;;;;;;;;;;;;0.23;77.75;102571.34;5042868;28;1669;-83
2021/03/07 05:28:40;;;;;;;;;;;;;;;0.24;77.92;102572.16;5044780;28;1945;-84
2021/03/07 05:31:06;;;;;;;;;;;;;;;0.24;78.18;102572.16;5044907;28;1849;-83
2021/03/07 05:33:31;;;;;;;;;;;;;;;0.25;78.42;102563.78;5042959;28;1588;-83
2021/03/07 05:35:58;;;;;;;;;;;;;;;0.28;77.83;102570.66;5041786;28;1675;-83
2021/03/07 05:38:23;;;;;;;;;;;;;;;0.29;76.91;102561.41;5042934;28;1961;-83
2021/03/07 05:40:50;;;;;;;;;;;;;;;0.30;77.42;102554.94;5043286;28;1951;-84
2021/03/07 05:43:16;;;;;;;;;;;;;;;0.30;77.19;102557.66;5043473;28;921;-83
2021/03/07 05:45:42;;;;;;;;;;;;;;;0.32;76.73;102561.78;5043136;28;2109;-83
2021/03/07 05:48:07;;;;;;;;;;;;;;;0.32;76.86;102559.06;5041316;28;1917;-84
2021/03/07 05:50:33;;;;;;;;;;;;;;;0.33;76.80;102560.72;5041746;28;1838;-83
2021/03/07 05:52:58;;;;;;;;;;;;;;;0.37;76.85;102569.25;5041178;28;1848;-83
2021/03/07 05:55:29;;;;;;;;;;;;;;;0.36;76.31;102564.84;5041267;28;993;-84
2021/03/07 05:57:58;;;;;;;;;;;;;;;0.36;76.66;102560.28;5040562;28;1893;-83
2021/03/07 06:00:24;;;;;;;;;;;;;;;0.38;76.61;102554.56;5043216;28;1897;-83
2021/03/07 06:02:49;;;;;;;;;;;;;;;0.39;76.85;102558.97;5043360;28;1733;-84
2021/03/07 06:05:16;;;;;;;;;;;;;;;0.41;76.46;102551.41;5044059;28;1829;-83
2021/03/07 06:07:47;;;;;;;;;;;;;;;0.42;76.72;102550.34;5043622;28;1486;-84
2021/03/07 06:10:22;;;;;;;;;;;;;;;0.44;76.49;102555.56;5044334;28;948;-83
2021/03/07 06:13:04;;;;;;;;;;;;;;;0.46;76.00;102558.88;5025646;28;1008;-83
2021/03/07 06:15:31;;;;;;;;;;;;;;;0.47;75.86;102552.38;5023153;28;1487;-84
2021/03/07 06:17:57;;;;;;;;;;;;;;;0.49;75.78;102553.78;5032739;28;1984;-83
2021/03/07 06:20:25;;;;;;;;;;;;;;;0.49;75.67;102542.09;5043467;28;1917;-83
2021/03/07 06:22:52;;;;;;;;;;;;;;;0.51;75.53;102548.13;5042903;28;1799;-83
2021/03/07 06:25:18;;;;;;;;;;;;;;;0.53;75.62;102537.84;5043935;28;1836;-83
2021/03/07 06:27:43;;;;;;;;;;;;;;;0.54;75.57;102534.88;5044405;28;1024;-84
2021/03/07 06:30:13;;;;;;;;;;;;;;;0.55;75.26;102527.53;5044527;28;1781;-83
2021/03/07 06:32:49;;;;;;;;;;;;;;;0.57;75.09;102528.13;5056676;28;1829;-84
2021/03/07 06:35:19;;;;;;;;;;;;;;;0.61;74.91;102525.81;5055226;28;1589;-83
2021/03/07 06:38:07;;;;;;;;;;;;;;;0.60;74.56;102524.97;5043799;28;1902;-84
2021/03/07 06:40:41;;;;;;;;;;;;;;;0.60;75.02;102530.38;5042966;28;1016;-83
2021/03/07 06:43:21;;;;;;;;;;;;;;;0.65;75.02;102529.69;5043661;28;1971;-83
2021/03/07 06:45:47;;;;;;;;;;;;;;;0.65;74.84;102532.41;5043265;28;1763;-83
2021/03/07 06:48:12;;;;;;;;;;;;;;;0.66;74.50;102531.38;5043306;28;1988;-84
2021/03/07 06:50:58;;;;;;;;;;;;;;;0.65;74.58;102527.78;5043482;28;1825;-84
2021/03/07 06:53:35;;;;;;;;;;;;;;;0.67;74.86;102525.66;5043455;28;1569;-84
2021/03/07 06:56:01;;;;;;;;;;;;;;;0.68;75.16;102523.78;5023496;28;1028;-83
2021/03/07 06:58:27;;;;;;;;;;;;;;;0.72;74.59;102523.06;5035202;28;1890;-84
2021/03/07 07:00:52;;;;;;;;;;;;;;;0.73;74.29;102516.56;5044275;28;1885;-83
2021/03/07 07:03:18;;;;;;;;;;;;;;;0.75;74.25;102521.78;5043975;28;1841;-84
2021/03/07 07:05:48;;;;;;;;;;;;;;;0.77;74.20;102525.09;5040369;28;1797;-84
2021/03/07 07:08:15;;;;;;;;;;;;;;;0.79;73.91;102527.56;5041408;28;1851;-84
2021/03/07 07:10:59;;;;;;;;;;;;;;;0.83;74.38;102529.59;5044771;28;1635;-84
2021/03/07 07:13:31;;;;;;;;;;;;;;;0.89;74.00;102519.66;5043888;28;2047;-84
2021/03/07 07:15:59;;;;;;;;;;;;;;;0.88;73.49;102513.38;5043311;28;1576;-84
2021/03/07 07:18:26;;;;;;;;;;;;;;;0.90;73.53;102507.69;5043494;28;1944;-83
2021/03/07 07:20:53;;;;;;;;;;;;;;;0.90;73.54;102516.69;5042885;28;873;-83
2021/03/07 07:23:19;;;;;;;;;;;;;;;0.93;73.62;102521.66;5044704;28;1702;-83
2021/03/07 07:25:47;;;;;;;;;;;;;;;0.96;73.23;102514.09;5043981;28;1805;-83
2021/03/07 07:28:14;;;;;;;;;;;;;;;0.96;73.33;102517.63;5042106;28;1915;-84
2021/03/07 07:30:40;;;;;;;;;;;;;;;1.00;73.52;102509.81;5043490;28;1814;-84
2021/03/07 07:33:18;;;;;;;;;;;;;;;0.99;73.23;102514.44;5045075;28;973;-84
2021/03/07 07:35:44;;;;;;;;;;;;;;;0.99;73.29;102511.72;5045315;28;921;-83
2021/03/07 07:38:12;;;;;;;;;;;;;;;1.03;73.32;102514.78;5044139;28;1951;-84
2021/03/07 07:40:41;;;;;;;;;;;;;;;1.04;73.49;102517.28;5047861;28;1597;-84
2021/03/07 07:43:06;;;;;;;;;;;;;;;1.09;73.00;102517.38;5039803;28;1741;-83
2021/03/07 07:45:34;;;;;;;;;;;;;;;1.09;73.20;102514.66;5039554;28;960;-84
2021/03/07 07:48:00;;;;;;;;;;;;;;;1.08;73.19;102504.00;5069348;28;1811;-84
2021/03/07 07:50:33;;;;;;;;;;;;;;;1.06;72.84;102509.69;5059274;28;1129;-84
2021/03/07 07:53:12;;;;;;;;;;;;;;;1.10;73.12;102513.56;5058985;28;999;-84
2021/03/07 07:55:56;;;;;;;;;;;;;;;1.13;73.41;102504.94;5046658;28;1016;-84
2021/03/07 07:58:37;;;;;;;;;;;;;;;1.18;73.23;102508.84;5044715;28;1936;-83
2021/03/07 08:01:06;;;;;;;;;;;;;;;1.23;73.01;102498.91;5043664;28;1781;-83
2021/03/07 08:03:39;;;;;;;;;;;;;;;1.26;73.05;102505.75;5043364;28;1535;-84
2021/03/07 08:06:05;;;;;;;;;;;;;;;1.32;72.68;102507.53;5047305;28;1920;-83
2021/03/07 08:08:39;;;;;;;;;;;;;;;1.34;72.23;102510.81;5047213;28;1267;-83
2021/03/07 08:11:28;;;;;;;;;;;;;;;1.35;72.15;102507.03;5047303;28;1763;-83
2021/03/07 08:13:58;;;;;;;;;;;;;;;1.41;71.95;102505.25;5041770;28;1084;-83
2021/03/07 08:16:43;;;;;;;;;;;;;;;1.52;72.09;102503.56;5045359;28;1814;-83
2021/03/07 08:19:33;;;;;;;;;;;;;;;1.55;71.58;102503.88;5041641;28;1820;-83
2021/03/07 08:21:59;;;;;;;;;;;;;;;1.60;71.46;102501.25;5047519;28;1101;-83
2021/03/07 08:24:58;;;;;;;;;;;;;;;1.69;71.33;102507.16;5046371;28;1737;-84
2021/03/07 08:27:33;;;;;;;;;;;;;;;1.87;71.13;102503.41;5046335;28;1779;-84
2021/03/07 08:29:58;;;;;;;;;;;;;;;1.98;70.14;102504.44;5045739;28;1688;-84
2021/03/07 08:32:29;;;;;;;;;;;;;;;1.93;69.89;102499.69;5044613;28;1651;-84
2021/03/07 08:34:56;;;;;;;;;;;;;;;1.99;69.45;102492.44;5027024;28;806;-84
2021/03/07 08:37:22;;;;;;;;;;;;;;;2.04;70.29;102496.09;5042033;28;1942;-83
2021/03/07 08:40:26;;;;;;;;;;;;;;;1.99;69.49;102487.00;5047612;28;1286;-83
2021/03/07 08:42:51;;;;;;;;;;;;;;;1.98;69.63;102490.81;5027670;28;957;-83
2021/03/07 08:45:20;;;;;;;;;;;;;;;2.07;69.67;102489.31;5045852;28;1753;-83
2021/03/07 08:47:57;;;;;;;;;;;;;;;2.17;69.65;102484.03;5046987;28;1680;-84
2021/03/07 08:50:24;;;;;;;;;;;;;;;2.18;69.11;102493.88;5047690;28;1507;-83
2021/03/07 08:52:49;;;;;;;;;;;;;;;2.14;68.96;102489.97;5046129;28;1737;-83
2021/03/07 08:55:15;;;;;;;;;;;;;;;2.34;69.38;102489.50;5044025;28;1752;-84
2021/03/07 08:57:45;;;;;;;;;;;;;;;2.43;68.06;102488.00;5044317;28;1944;-84
2021/03/07 09:00:12;;;;;;;;;;;;;;;2.29;68.17;102485.88;5043974;28;1350;-84
2021/03/07 09:02:38;;;;;;;;;;;;;;;2.35;68.62;102487.59;5042554;28;1702;-82
2021/03/07 09:05:06;;;;;;;;;;;;;;;2.63;67.84;102484.78;5041944;28;896;-79
2021/03/07 09:07:31;;;;;;;;;;;;;;;2.57;67.96;102477.59;5038858;28;1008;-79
2021/03/07 09:09:57;;;;;;;;;;;;;;;2.76;67.78;102483.59;5040391;28;1752;-79
2021/03/07 09:12:23;;;;;;;;;;;;;;;2.88;66.71;102477.22;5040164;28;2344;-79
2021/03/07 09:14:49;;;;;;;;;;;;;;;2.73;67.13;102475.09;5041635;28;2144;-79
2021/03/07 09:17:22;;;;;;;;;;;;;;;2.66;67.58;102469.81;5039129;28;1967;-79
2021/03/07 09:19:49;;;;;;;;;;;;;;;2.71;67.31;102469.06;5034524;28;1848;-79
2021/03/07 09:22:25;;;;;;;;;;;;;;;2.83;66.80;102465.13;5039911;28;909;-79
2021/03/07 09:25:05;;;;;;;;;;;;;;;2.97;66.39;102448.41;5043440;28;2124;-79
2021/03/07 09:27:34;;;;;;;;;;;;;;;3.10;65.48;102445.31;5040577;28;1864;-79
2021/03/07 09:30:01;;;;;;;;;;;;;;;3.04;66.06;102459.13;5038451;28;1920;-79
2021/03/07 09:32:33;;;;;;;;;;;;;;;3.11;65.45;102454.31;5038244;28;1732;-79
2021/03/07 09:35:02;;;;;;;;;;;;;;;3.09;65.49;102456.47;5039215;28;1088;-79
2021/03/07 09:37:28;;;;;;;;;;;;;;;3.12;65.05;102451.34;5039883;28;1976;-79
2021/03/07 09:39:55;;;;;;;;;;;;;;;3.03;65.23;102449.28;5037978;28;1890;-79
2021/03/07 09:42:21;;;;;;;;;;;;;;;3.03;65.73;102452.88;5035962;28;1943;-80
2021/03/07 09:44:47;;;;;;;;;;;;;;;3.19;64.92;102441.03;5038283;28;2243;-80
2021/03/07 09:47:14;;;;;;;;;;;;;;;3.23;65.02;102432.34;5039306;28;2374;-80
2021/03/07 09:49:41;;;;;;;;;;;;;;;4.79;61.23;102428.72;5039320;28;2045;-80
2021/03/07 09:52:07;;;;;;;;;;;;;;;8.84;49.77;102413.75;5039249;28;1699;-80
2021/03/07 09:54:56;;;;;;;;;;;;;;;10.13;46.73;102409.94;5041337;28;2031;-84
2021/03/07 09:57:41;;;;;;;;;;;;;;;9.53;44.28;102405.13;5049090;28;1939;-84
2021/03/07 10:00:07;;;;;;;;;;;;;;;8.33;47.94;102424.47;5039942;28;2078;-85
2021/03/07 10:02:35;;;;;;;;;;;;;;;8.15;48.39;102428.72;5042735;28;1527;-84
2021/03/07 10:05:12;;;;;;;;;;;;;;;7.48;49.82;102418.25;5040728;28;841;-84
2021/03/07 10:07:37;;;;;;;;;;;;;;;7.32;50.44;102418.31;5038188;28;1719;-84
2021/03/07 10:10:29;;;;;;;;;;;;;;;6.83;52.30;102410.84;5041164;28;1747;-83
2021/03/07 10:12:59;;;;;;;;;;;;;;;6.39;51.95;102417.00;5039251;28;1053;-84
2021/03/07 10:15:26;;;;;;;;;;;;;;;6.36;54.09;102412.88;5039012;28;1813;-84
2021/03/07 10:17:52;;;;;;;;;;;;;;;6.34;53.61;102408.78;5035882;28;2206;-83
2021/03/07 10:20:18;;;;;;;;;;;;;;;6.41;53.10;102409.31;5042353;28;1735;-83
2021/03/07 10:22:48;;;;;;;;;;;;;;;6.48;53.07;102407.09;5044193;28;850;-85
2021/03/07 10:25:34;;;;;;;;;;;;;;;6.23;52.69;102405.25;5042927;28;1511;-83
2021/03/07 10:28:03;;;;;;;;;;;;;;;5.58;53.71;102402.16;5054609;28;2000;-83
2021/03/07 10:30:44;;;;;;;;;;;;;;;6.01;53.61;102417.31;5048560;28;1697;-83
2021/03/07 10:33:18;;;;;;;;;;;;;;;5.92;53.34;102404.41;5042290;28;707;-84
2021/03/07 10:36:09;;;;;;;;;;;;;;;6.90;50.82;102410.53;5039689;28;2424;-83
2021/03/07 10:38:41;;;;;;;;;;;;;;;7.04;50.59;102403.38;5040302;28;1867;-83
2021/03/07 10:41:32;;;;;;;;;;;;;;;7.25;49.75;102403.25;5040433;28;1890;-83
2021/03/07 10:44:01;;;;;;;;;;;;;;;7.17;49.16;102401.09;5042940;28;790;-83
2021/03/07 10:46:34;;;;;;;;;;;;;;;6.84;50.10;102401.50;5039687;28;1663;-83
2021/03/07 10:49:03;;;;;;;;;;;;;;;6.66;51.05;102391.97;5038574;28;1361;-80
2021/03/07 10:51:28;;;;;;;;;;;;;;;6.82;49.76;102386.41;5038898;28;992;-79
2021/03/07 10:53:55;;;;;;;;;;;;;;;6.97;49.51;102394.59;5039130;28;977;-81
2021/03/07 10:56:26;;;;;;;;;;;;;;;7.62;48.35;102389.00;5037246;28;2485;-82
2021/03/07 10:58:51;;;;;;;;;;;;;;;7.87;47.98;102385.25;5038094;28;1965;-80
2021/03/07 11:01:17;;;;;;;;;;;;;;;7.95;47.50;102388.47;5051413;28;2246;-82
2021/03/07 11:03:43;;;;;;;;;;;;;;;8.30;46.35;102384.56;5024976;28;1094;-82
2021/03/07 11:06:09;;;;;;;;;;;;;;;7.68;48.03;102376.03;5024476;28;911;-81
2021/03/07 11:08:36;;;;;;;;;;;;;;;7.24;49.62;102379.63;5023930;28;1361;-81
2021/03/07 11:11:01;;;;;;;;;;;;;;;6.96;50.37;102385.53;5029966;28;1917;-81
2021/03/07 11:13:27;;;;;;;;;;;;;;;6.90;50.24;102386.69;5042079;28;1636;-82
2021/03/07 11:15:52;;;;;;;;;;;;;;;7.05;50.73;102379.47;5020728;28;2493;-82
2021/03/07 11:18:17;;;;;;;;;;;;;;;6.65;51.16;102389.50;5023255;28;1937;-82
2021/03/07 11:20:43;;;;;;;;;;;;;;;6.44;52.56;102385.97;5042323;28;1980;-81
2021/03/07 11:23:08;;;;;;;;;;;;;;;5.87;53.97;102368.75;5043209;28;831;-81
2021/03/07 11:25:33;;;;;;;;;;;;;;;5.74;54.21;102384.63;5046489;28;1931;-81
2021/03/07 11:27:59;;;;;;;;;;;;;;;5.69;54.69;102376.41;5045747;28;1431;-82
2021/03/07 11:30:24;;;;;;;;;;;;;;;5.37;55.05;102371.19;5042289;28;1849;-81
2021/03/07 11:32:50;;;;;;;;;;;;;;;5.04;55.60;102381.50;5044283;28;840;-81
2021/03/07 11:35:15;;;;;;;;;;;;;;;4.69;56.43;102374.78;5027443;28;2010;-82
2021/03/07 11:37:41;;;;;;;;;;;;;;;4.88;56.28;102375.97;5023428;28;1886;-82
2021/03/07 11:40:07;;;;;;;;;;;;;;;5.03;55.67;102372.44;5039541;28;1843;-81
2021/03/07 11:42:32;;;;;;;;;;;;;;;4.98;56.17;102366.13;5049087;28;1053;-82
2021/03/07 11:44:57;;;;;;;;;;;;;;;4.92;56.85;102372.69;5047883;28;1882;-81
2021/03/07 11:47:23;;;;;;;;;;;;;;;5.09;56.53;102371.38;5046784;28;2086;-82
2021/03/07 11:49:48;;;;;;;;;;;;;;;5.09;56.49;102365.09;5044973;28;1906;-81
2021/03/07 11:52:14;;;;;;;;;;;;;;;5.06;56.04;102362.88;5049336;28;1059;-80
2021/03/07 11:54:39;;;;;;;;;;;;;;;4.67;57.19;102350.44;5046671;28;1835;-81
2021/03/07 11:57:06;;;;;;;;;;;;;;;4.40;58.59;102350.56;5047373;28;1870;-82
2021/03/07 11:59:33;;;;;;;;;;;;;;;4.30;58.30;102350.50;5047638;28;1920;-80
2021/03/07 12:01:58;;;;;;;;;;;;;;;4.22;59.12;102351.84;5048343;28;2059;-80
2021/03/07 12:04:24;;;;;;;;;;;;;;;4.25;58.83;102355.94;5041503;28;1916;-80
2021/03/07 12:06:49;;;;;;;;;;;;;;;4.32;59.40;102351.88;5029122;28;2118;-80
2021/03/07 12:09:15;;;;;;;;;;;;;;;4.23;59.02;102356.19;5048050;28;1726;-81
2021/03/07 12:11:40;;;;;;;;;;;;;;;4.22;59.27;102342.78;5048538;28;1059;-81
2021/03/07 12:14:06;;;;;;;;;;;;;;;4.25;59.47;102339.53;5047721;28;1999;-81
2021/03/07 12:16:31;;;;;;;;;;;;;;;4.14;59.93;102336.72;5045805;28;2092;-81
2021/03/07 12:18:57;;;;;;;;;;;;;;;4.30;59.66;102331.34;5047440;28;1902;-81
2021/03/07 12:21:23;;;;;;;;;;;;;;;4.29;59.05;102336.00;5049374;28;1872;-81
2021/03/07 12:23:48;;;;;;;;;;;;;;;4.16;59.81;102319.25;5051789;28;2236;-81
2021/03/07 12:26:13;;;;;;;;;;;;;;;3.95;60.21;102319.94;5047640;28;1674;-81
2021/03/07 12:28:39;;;;;;;;;;;;;;;4.11;60.29;102320.84;5047849;28;1381;-81
2021/03/07 12:31:04;;;;;;;;;;;;;;;4.10;60.56;102321.94;5049260;28;1958;-81
2021/03/07 12:33:30;;;;;;;;;;;;;;;4.15;60.64;102312.94;5045999;28;2170;-81
2021/03/07 12:35:55;;;;;;;;;;;;;;;4.26;60.50;102311.94;5042177;28;862;-81
2021/03/07 12:38:20;;;;;;;;;;;;;;;4.24;61.46;102310.53;5040835;28;2075;-81
2021/03/07 12:40:46;;;;;;;;;;;;;;;4.18;61.23;102306.94;5050650;28;1573;-81
2021/03/07 12:43:11;;;;;;;;;;;;;;;4.15;61.75;102299.28;5048710;28;870;-81
2021/03/07 12:45:37;;;;;;;;;;;;;;;4.14;61.99;102297.63;5047578;28;1768;-81
2021/03/07 12:48:02;;;;;;;;;;;;;;;4.09;62.59;102297.59;5048262;28;1385;-81
2021/03/07 12:50:28;;;;;;;;;;;;;;;3.98;63.16;102298.63;5047727;28;1056;-82
2021/03/07 12:52:53;;;;;;;;;;;;;;;3.92;63.29;102308.69;5048788;28;2035;-81
2021/03/07 12:55:19;;;;;;;;;;;;;;;3.83;63.56;102297.44;5048547;28;2044;-81
2021/03/07 12:57:44;;;;;;;;;;;;;;;3.79;63.25;102301.78;5045080;28;2208;-80
2021/03/07 13:00:10;;;;;;;;;;;;;;;3.70;64.37;102295.16;5045793;28;1322;-81